createdAt,value
2018-12-13T00:00:01.706Z,9.03
2018-12-13T00:02:30.872Z,8.47
2018-12-13T00:05:00.022Z,9.00
2018-12-13T00:07:29.139Z,8.40
2018-12-13T00:09:58.220Z,9.73
2018-12-13T00:12:27.302Z,9.23
2018-12-13T00:14:56.390Z,9.13
2018-12-13T00:17:25.487Z,8.87
2018-12-13T00:19:54.560Z,8.30
2018-12-13T00:22:23.702Z,9.53
2018-12-13T00:24:53.020Z,9.63
2018-12-13T00:27:22.072Z,9.13
2018-12-13T00:29:51.138Z,9.77
2018-12-13T00:32:20.238Z,10.10
2018-12-13T00:34:49.328Z,10.30
2018-12-13T00:37:18.774Z,9.17
2018-12-13T00:39:47.891Z,9.47
2018-12-13T00:42:16.936Z,9.63
2018-12-13T00:44:46.057Z,10.00
2018-12-13T00:47:15.161Z,9.47
2018-12-13T00:49:44.218Z,10.70
2018-12-13T00:52:13.277Z,8.90
2018-12-13T00:54:42.388Z,9.70
2018-12-13T00:57:11.454Z,10.00
2018-12-13T00:59:40.705Z,9.97
2018-12-13T01:02:09.850Z,9.97
2018-12-13T01:04:38.926Z,10.43
2018-12-13T01:07:08.010Z,10.87
2018-12-13T01:09:37.120Z,9.70
2018-12-13T01:12:06.222Z,10.30
2018-12-13T01:14:35.340Z,10.00
2018-12-13T01:17:04.811Z,10.47
2018-12-13T01:19:33.923Z,10.03
2018-12-13T01:22:03.291Z,10.37
2018-12-13T01:24:32.352Z,9.90
2018-12-13T01:27:01.495Z,10.33
2018-12-13T01:29:30.591Z,10.93
2018-12-13T01:31:59.688Z,11.10
2018-12-13T01:34:28.805Z,10.60
2018-12-13T01:36:57.969Z,11.50
2018-12-13T01:39:27.050Z,11.13
2018-12-13T01:41:56.156Z,11.60
2018-12-13T01:44:25.269Z,12.60
2018-12-13T01:46:54.355Z,11.77
2018-12-13T01:49:23.423Z,12.73
2018-12-13T01:51:52.531Z,11.90
2018-12-13T01:54:21.753Z,11.97
2018-12-13T01:56:50.801Z,11.93
2018-12-13T01:59:19.878Z,12.07
2018-12-13T02:01:49.113Z,12.40
2018-12-13T02:04:18.175Z,11.87
2018-12-13T02:06:47.377Z,11.27
2018-12-13T02:09:16.479Z,11.27
2018-12-13T02:11:45.543Z,11.10
2018-12-13T02:14:14.808Z,10.70
2018-12-13T02:16:43.884Z,9.53
2018-12-13T02:19:12.959Z,10.70
2018-12-13T02:21:42.075Z,10.20
2018-12-13T02:24:11.215Z,10.87
2018-12-13T02:26:40.323Z,10.00
2018-12-13T02:29:09.411Z,10.97
2018-12-13T02:31:38.477Z,10.10
2018-12-13T02:34:07.590Z,9.87
2018-12-13T02:36:36.658Z,10.20
2018-12-13T02:39:06.802Z,9.80
2018-12-13T02:41:35.894Z,10.67
2018-12-13T02:44:05.093Z,11.03
2018-12-13T02:46:34.206Z,12.47
2018-12-13T02:49:08.425Z,12.53
2018-12-13T02:51:37.687Z,11.47
2018-12-13T02:54:07.772Z,12.27
2018-12-13T02:56:36.913Z,12.83
2018-12-13T02:59:05.942Z,12.70
2018-12-13T03:01:35.018Z,12.90
2018-12-13T03:04:04.457Z,12.03
2018-12-13T03:06:33.532Z,13.13
2018-12-13T03:09:02.726Z,11.97
2018-12-13T03:11:31.819Z,12.70
2018-12-13T03:14:00.941Z,13.53
2018-12-13T03:16:30.031Z,13.00
2018-12-13T03:18:59.179Z,12.85
2018-12-13T03:21:28.219Z,11.97
2018-12-13T03:23:57.523Z,12.43
2018-12-13T03:26:26.649Z,13.03
2018-12-13T03:28:55.761Z,13.33
2018-12-13T03:31:24.873Z,13.50
2018-12-13T03:33:53.956Z,13.50
2018-12-13T03:36:23.042Z,13.78
2018-12-13T03:38:52.138Z,15.00
2018-12-13T03:41:21.259Z,14.33
2018-12-13T03:43:50.345Z,15.30
2018-12-13T03:46:19.466Z,13.43
2018-12-13T03:48:48.579Z,13.23
2018-12-13T03:51:17.647Z,15.38
2018-12-13T03:53:46.757Z,14.85
2018-12-13T03:56:16.014Z,13.90
2018-12-13T03:58:45.079Z,15.13
2018-12-13T04:01:14.187Z,14.50
2018-12-13T04:03:43.248Z,15.60
2018-12-13T04:06:12.463Z,14.27
2018-12-13T04:08:41.519Z,15.50
2018-12-13T04:11:10.598Z,14.50
2018-12-13T04:13:39.713Z,14.83
2018-12-13T04:16:08.808Z,15.75
2018-12-13T04:18:37.872Z,13.30
2018-12-13T04:21:06.943Z,14.20
2018-12-13T04:23:36.009Z,13.87
2018-12-13T04:26:05.091Z,14.03
2018-12-13T04:28:34.236Z,14.40
2018-12-13T04:31:03.476Z,14.90
2018-12-13T04:33:32.551Z,12.60
2018-12-13T04:36:01.616Z,14.90
2018-12-13T04:38:30.680Z,14.20
2018-12-13T04:40:59.898Z,13.65
2018-12-13T04:43:29.022Z,14.75
2018-12-13T04:45:58.126Z,13.30
2018-12-13T04:48:27.306Z,12.65
2018-12-13T04:50:56.398Z,13.75
2018-12-13T04:53:25.486Z,12.80
2018-12-13T04:55:54.564Z,13.17
2018-12-13T04:58:23.734Z,13.10
2018-12-13T05:00:52.808Z,13.43
2018-12-13T05:03:21.872Z,12.85
2018-12-13T05:05:51.048Z,14.05
2018-12-13T05:08:20.278Z,13.98
2018-12-13T05:10:53.306Z,13.45
2018-12-13T05:13:22.386Z,13.78
2018-12-13T05:15:51.458Z,13.72
2018-12-13T05:18:20.639Z,12.75
2018-12-13T05:20:49.726Z,13.35
2018-12-13T05:23:18.828Z,13.08
2018-12-13T05:25:47.953Z,13.70
2018-12-13T05:28:17.072Z,12.85
2018-12-13T05:30:46.652Z,13.95
2018-12-13T05:33:15.916Z,12.70
2018-12-13T05:35:44.996Z,13.68
2018-12-13T05:38:14.046Z,12.15
2018-12-13T05:40:43.177Z,13.63
2018-12-13T05:43:12.243Z,12.45
2018-12-13T05:45:41.448Z,12.40
2018-12-13T05:48:10.567Z,12.50
2018-12-13T05:50:39.655Z,12.20
2018-12-13T05:53:08.737Z,12.65
2018-12-13T05:55:37.907Z,12.23
2018-12-13T05:58:06.980Z,12.93
2018-12-13T06:00:36.101Z,11.95
2018-12-13T06:03:05.844Z,11.95
2018-12-13T06:05:34.905Z,12.03
2018-12-13T06:08:04.079Z,12.75
2018-12-13T06:10:33.653Z,11.50
2018-12-13T06:13:02.701Z,11.38
2018-12-13T06:15:31.797Z,11.25
2018-12-13T06:18:06.632Z,11.18
2018-12-13T06:20:31.905Z,12.10
2018-12-13T06:23:01.011Z,12.33
2018-12-13T06:25:30.123Z,10.60
2018-12-13T06:27:59.187Z,11.90
2018-12-13T06:30:28.315Z,10.45
2018-12-13T06:32:57.417Z,11.20
2018-12-13T06:35:26.655Z,11.12
2018-12-13T06:38:01.091Z,11.35
2018-12-13T06:40:27.035Z,10.90
2018-12-13T06:42:56.159Z,10.78
2018-12-13T06:45:25.306Z,10.30
2018-12-13T06:47:54.413Z,11.10
2018-12-13T06:50:23.564Z,11.80
2018-12-13T06:52:52.629Z,10.43
2018-12-13T06:55:21.701Z,11.85
2018-12-13T06:57:50.761Z,11.25
2018-12-13T07:00:19.847Z,12.05
2018-12-13T07:02:48.920Z,11.15
2018-12-13T07:05:17.964Z,11.55
2018-12-13T07:07:47.245Z,11.83
2018-12-13T07:10:16.310Z,10.58
2018-12-13T07:12:45.539Z,10.85
2018-12-13T07:15:14.627Z,10.68
2018-12-13T07:17:43.705Z,10.72
2018-12-13T07:20:12.909Z,10.50
2018-12-13T07:22:41.993Z,10.18
2018-12-13T07:25:11.076Z,10.48
2018-12-13T07:27:40.159Z,9.98
2018-12-13T07:30:09.967Z,10.85
2018-12-13T07:32:39.186Z,11.28
2018-12-13T07:35:08.431Z,11.20
2018-12-13T07:37:37.543Z,11.30
2018-12-13T07:40:08.059Z,10.43
2018-12-13T07:42:37.151Z,9.90
2018-12-13T07:45:06.370Z,10.25
2018-12-13T07:47:35.457Z,10.18
2018-12-13T07:50:05.827Z,9.88
2018-12-13T07:52:34.912Z,10.08
2018-12-13T07:55:04.409Z,10.60
2018-12-13T07:57:33.515Z,10.48
2018-12-13T08:00:02.602Z,10.58
2018-12-13T08:02:31.636Z,11.33
2018-12-13T08:05:00.721Z,10.70
2018-12-13T08:07:29.818Z,10.40
2018-12-13T08:09:58.888Z,10.00
2018-12-13T08:12:28.012Z,10.60
2018-12-13T08:14:57.432Z,10.90
2018-12-13T08:17:26.467Z,9.95
2018-12-13T08:19:55.573Z,9.10
2018-12-13T08:22:24.616Z,10.32
2018-12-13T08:24:53.649Z,10.90
2018-12-13T08:27:22.693Z,10.17
2018-12-13T08:29:51.808Z,10.53
2018-12-13T08:32:20.880Z,10.18
2018-12-13T08:34:49.952Z,9.30
2018-12-13T08:37:19.678Z,9.17
2018-12-13T08:39:48.834Z,10.47
2018-12-13T08:42:17.952Z,10.50
2018-12-13T08:44:47.096Z,11.53
2018-12-13T08:47:16.365Z,10.80
2018-12-13T08:49:45.418Z,11.00
2018-12-13T08:52:14.526Z,14.60
2018-12-13T08:54:43.859Z,11.87
2018-12-13T08:57:12.904Z,10.90
2018-12-13T08:59:41.972Z,11.20
2018-12-13T09:02:11.020Z,10.67
2018-12-13T09:04:40.064Z,11.13
2018-12-13T09:07:09.140Z,10.70
2018-12-13T09:09:38.184Z,12.03
2018-12-13T09:12:07.227Z,11.97
2018-12-13T09:14:36.437Z,10.40
2018-12-13T09:17:06.092Z,10.60
2018-12-13T09:19:35.147Z,10.83
2018-12-13T09:22:04.210Z,10.23
2018-12-13T09:24:33.263Z,10.60
2018-12-13T09:27:02.333Z,10.47
2018-12-13T09:29:31.355Z,10.50
2018-12-13T09:32:00.580Z,11.17
2018-12-13T09:34:29.675Z,10.93
2018-12-13T09:36:58.883Z,10.17
2018-12-13T09:39:27.996Z,10.90
2018-12-13T09:41:57.080Z,10.37
2018-12-13T09:44:26.337Z,11.93
2018-12-13T09:46:55.384Z,10.13
2018-12-13T09:49:24.758Z,10.10
2018-12-13T09:51:53.816Z,11.00
2018-12-13T09:54:22.914Z,9.80
2018-12-13T09:56:52.019Z,9.53
2018-12-13T09:59:21.212Z,10.30
2018-12-13T10:01:50.246Z,10.20
2018-12-13T10:04:19.349Z,10.93
2018-12-13T10:06:48.400Z,9.97
2018-12-13T10:09:17.457Z,9.50
2018-12-13T10:11:46.647Z,9.87
2018-12-13T10:14:15.679Z,9.77
2018-12-13T10:16:44.730Z,9.10
2018-12-13T10:19:14.112Z,8.97
2018-12-13T10:21:43.131Z,8.90
2018-12-13T10:24:12.198Z,9.63
2018-12-13T10:26:41.314Z,9.23
2018-12-13T10:29:10.348Z,8.30
2018-12-13T10:31:39.388Z,8.80
2018-12-13T10:34:08.491Z,8.10
2018-12-13T10:36:37.549Z,7.70
2018-12-13T10:39:08.538Z,8.70
2018-12-13T10:41:37.652Z,8.43
2018-12-13T10:44:06.702Z,7.90
2018-12-13T10:46:35.758Z,8.03
2018-12-13T10:49:04.782Z,7.53
2018-12-13T10:51:34.552Z,7.87
2018-12-13T10:54:03.640Z,8.10
2018-12-13T10:56:32.672Z,8.30
2018-12-13T10:59:01.696Z,7.80
2018-12-13T11:01:36.236Z,8.07
2018-12-13T11:04:05.291Z,7.37
2018-12-13T11:06:34.337Z,8.60
2018-12-13T11:09:04.857Z,8.63
2018-12-13T11:11:33.911Z,8.37
2018-12-13T11:14:02.961Z,7.60
2018-12-13T11:16:32.028Z,7.30
2018-12-13T11:19:01.137Z,7.80
2018-12-13T11:21:30.605Z,8.37
2018-12-13T11:23:59.689Z,7.63
2018-12-13T11:26:28.747Z,7.47
2018-12-13T11:29:33.944Z,7.77
2018-12-13T11:32:02.977Z,8.00
2018-12-13T11:34:32.103Z,7.20
2018-12-13T11:37:01.189Z,6.80
2018-12-13T11:39:30.248Z,7.63
2018-12-13T11:41:59.377Z,8.30
2018-12-13T11:44:28.581Z,7.93
2018-12-13T11:46:57.590Z,7.93
2018-12-13T11:49:26.653Z,8.03
2018-12-13T11:51:55.725Z,8.60
2018-12-13T11:54:38.309Z,8.40
2018-12-13T11:57:07.417Z,8.50
2018-12-13T11:59:36.475Z,8.23
2018-12-13T12:02:05.663Z,8.43
2018-12-13T12:04:34.767Z,8.67
2018-12-13T12:07:03.851Z,7.83
2018-12-13T12:09:32.925Z,8.97
2018-12-13T12:12:01.991Z,8.37
2018-12-13T12:14:31.023Z,9.10
2018-12-13T12:17:00.177Z,8.50
2018-12-13T12:19:29.285Z,8.67
2018-12-13T12:21:58.470Z,7.50
2018-12-13T12:24:27.510Z,8.33
2018-12-13T12:26:56.631Z,8.20
2018-12-13T12:29:25.691Z,8.30
2018-12-13T12:31:54.783Z,8.40
2018-12-13T12:34:23.848Z,8.50
2018-12-13T12:36:52.917Z,9.50
2018-12-13T12:39:21.948Z,8.63
2018-12-13T12:41:51.009Z,8.37
2018-12-13T12:44:20.071Z,7.80
2018-12-13T12:46:49.128Z,8.87
2018-12-13T12:49:18.366Z,8.60
2018-12-13T12:51:47.411Z,8.80
2018-12-13T12:54:16.458Z,8.27
2018-12-13T12:56:45.550Z,8.30
2018-12-13T12:59:14.613Z,8.47
2018-12-13T13:01:43.701Z,7.57
2018-12-13T13:04:12.800Z,8.37
2018-12-13T13:06:41.932Z,8.83
2018-12-13T13:09:10.988Z,9.00
2018-12-13T13:11:40.048Z,8.80
2018-12-13T13:14:09.073Z,9.30
2018-12-13T13:16:38.111Z,8.80
2018-12-13T13:19:07.192Z,8.33
2018-12-13T13:21:36.252Z,8.23
2018-12-13T13:24:05.651Z,9.00
2018-12-13T13:26:34.752Z,8.83
2018-12-13T13:29:03.938Z,8.63
2018-12-13T13:31:33.038Z,9.00
2018-12-13T13:34:02.102Z,9.40
2018-12-13T13:36:31.170Z,9.43
2018-12-13T13:39:00.646Z,9.60
2018-12-13T13:41:29.714Z,8.67
2018-12-13T13:43:58.735Z,9.07
2018-12-13T13:46:27.893Z,8.90
2018-12-13T13:48:56.939Z,9.07
2018-12-13T13:51:26.004Z,9.17
2018-12-13T13:53:55.074Z,8.87
2018-12-13T13:56:24.114Z,9.37
2018-12-13T13:58:53.153Z,8.70
2018-12-13T14:01:22.184Z,8.83
2018-12-13T14:03:51.332Z,8.40
2018-12-13T14:06:20.389Z,8.33
2018-12-13T14:08:49.454Z,8.50
2018-12-13T14:11:18.508Z,8.70
2018-12-13T14:13:47.596Z,8.20
2018-12-13T14:16:16.642Z,9.27
2018-12-13T14:18:45.793Z,8.90
2018-12-13T14:21:14.836Z,8.70
2018-12-13T14:23:43.932Z,8.20
2018-12-13T14:26:13.523Z,8.80
2018-12-13T14:28:42.607Z,7.67
2018-12-13T14:31:11.659Z,8.80
2018-12-13T14:33:40.767Z,8.90
2018-12-13T14:36:09.863Z,7.80
2018-12-13T14:38:38.900Z,9.23
2018-12-13T14:41:08.073Z,7.87
2018-12-13T14:43:37.151Z,7.50
2018-12-13T14:46:06.221Z,9.03
2018-12-13T14:48:35.414Z,8.17
2018-12-13T14:51:04.759Z,9.10
2018-12-13T14:53:33.797Z,8.00
2018-12-13T14:56:02.841Z,8.53
2018-12-13T14:58:32.251Z,9.70
2018-12-13T15:01:01.293Z,9.50
2018-12-13T15:03:30.489Z,9.87
2018-12-13T15:05:59.854Z,10.60
2018-12-13T15:08:28.909Z,11.40
2018-12-13T15:10:57.942Z,10.70
2018-12-13T15:13:27.051Z,10.40
2018-12-13T15:15:56.180Z,10.33
2018-12-13T15:18:25.259Z,9.80
2018-12-13T15:20:54.309Z,11.37
2018-12-13T15:23:23.346Z,11.53
2018-12-13T15:25:52.429Z,11.30
2018-12-13T15:28:21.712Z,12.50
2018-12-13T15:30:50.742Z,11.73
2018-12-13T15:33:19.902Z,11.77
2018-12-13T15:35:48.938Z,12.50
2018-12-13T15:38:17.992Z,12.93
2018-12-13T15:40:47.087Z,12.33
2018-12-13T15:43:16.137Z,13.03
2018-12-13T15:45:45.204Z,12.77
2018-12-13T15:48:14.280Z,15.33
2018-12-13T15:50:43.729Z,11.60
2018-12-13T15:53:12.774Z,11.20
2018-12-13T15:55:41.891Z,12.03
2018-12-13T15:58:10.946Z,11.40
2018-12-13T16:00:40.048Z,12.63
2018-12-13T16:03:09.168Z,12.57
2018-12-13T16:05:38.233Z,13.10
2018-12-13T16:08:07.406Z,12.70
2018-12-13T16:10:36.517Z,13.20
2018-12-13T16:13:05.568Z,12.07
2018-12-13T16:15:34.630Z,11.93
2018-12-13T16:18:03.745Z,11.40
2018-12-13T16:20:32.813Z,12.57
2018-12-13T16:23:01.923Z,11.67
2018-12-13T16:25:31.024Z,12.00
2018-12-13T16:28:00.066Z,11.20
2018-12-13T16:30:29.565Z,11.60
2018-12-13T16:32:58.689Z,12.37
2018-12-13T16:35:27.755Z,11.93
2018-12-13T16:37:56.852Z,11.50
2018-12-13T16:40:26.082Z,11.53
2018-12-13T16:42:55.179Z,12.00
2018-12-13T16:45:25.179Z,12.30
2018-12-13T16:47:54.317Z,12.40
2018-12-13T16:50:23.384Z,12.13
2018-12-13T16:52:52.454Z,12.40
2018-12-13T16:55:21.615Z,12.90
2018-12-13T16:57:50.881Z,11.83
2018-12-13T17:00:19.972Z,12.10
2018-12-13T17:02:49.071Z,12.80
2018-12-13T17:05:18.129Z,11.67
2018-12-13T17:07:47.214Z,12.30
2018-12-13T17:10:16.967Z,12.90
2018-12-13T17:12:46.563Z,13.17
2018-12-13T17:15:15.638Z,12.37
2018-12-13T17:17:44.715Z,12.10
2018-12-13T17:20:13.787Z,13.37
2018-12-13T17:22:42.835Z,13.03
2018-12-13T17:25:11.948Z,13.63
2018-12-13T17:27:41.017Z,12.53
2018-12-13T17:30:10.301Z,13.60
2018-12-13T17:32:39.961Z,13.03
2018-12-13T17:35:09.149Z,13.67
2018-12-13T17:37:38.217Z,14.10
2018-12-13T17:40:07.549Z,14.60
2018-12-13T17:42:36.773Z,14.80
2018-12-13T17:45:05.907Z,13.23
2018-12-13T17:47:35.019Z,14.57
2018-12-13T17:50:04.723Z,14.80
2018-12-13T17:52:33.811Z,14.90
2018-12-13T17:55:03.085Z,14.97
2018-12-13T17:57:32.182Z,14.87
2018-12-13T18:00:01.304Z,13.50
2018-12-13T18:02:30.415Z,14.47
2018-12-13T18:04:59.524Z,14.27
2018-12-13T18:07:28.588Z,15.30
2018-12-13T18:09:57.716Z,15.10
2018-12-13T18:12:26.823Z,14.60
2018-12-13T18:14:55.902Z,15.18
2018-12-13T18:17:24.995Z,15.90
2018-12-13T18:19:55.203Z,14.40
2018-12-13T18:22:24.441Z,14.80
2018-12-13T18:24:53.531Z,14.67
2018-12-13T18:27:22.671Z,16.00
2018-12-13T18:29:52.040Z,16.60
2018-12-13T18:32:21.147Z,17.00
2018-12-13T18:34:50.420Z,15.47
2018-12-13T18:37:19.543Z,15.87
2018-12-13T18:39:48.624Z,16.20
2018-12-13T18:42:17.770Z,15.63
2018-12-13T18:44:46.958Z,15.83
2018-12-13T18:47:17.707Z,15.50
2018-12-13T18:49:46.811Z,15.63
2018-12-13T18:52:15.893Z,15.17
2018-12-13T18:54:45.015Z,15.28
2018-12-13T18:57:14.171Z,14.53
2018-12-13T18:59:43.291Z,15.80
2018-12-13T19:02:12.399Z,15.87
2018-12-13T19:04:41.525Z,15.13
2018-12-13T19:07:10.637Z,15.10
2018-12-13T19:09:39.759Z,15.57
2018-12-13T19:12:08.962Z,14.13
2018-12-13T19:14:38.155Z,14.07
2018-12-13T19:17:07.283Z,14.43
2018-12-13T19:19:36.387Z,15.47
2018-12-13T19:22:05.439Z,14.00
2018-12-13T19:24:34.526Z,14.77
2018-12-13T19:27:03.623Z,15.50
2018-12-13T19:29:32.666Z,15.97
2018-12-13T19:32:01.735Z,14.57
2018-12-13T19:34:30.937Z,15.60
2018-12-13T19:37:00.356Z,14.87
2018-12-13T19:39:29.461Z,17.00
2018-12-13T19:41:58.634Z,16.33
2018-12-13T19:44:27.697Z,15.53
2018-12-13T19:46:56.790Z,16.07
2018-12-13T19:49:25.932Z,15.90
2018-12-13T19:51:55.075Z,15.47
2018-12-13T19:54:24.166Z,16.77
2018-12-13T19:56:53.310Z,16.17
2018-12-13T19:59:22.418Z,16.43
2018-12-13T20:01:51.494Z,16.23
2018-12-13T20:04:20.635Z,17.55
2018-12-13T20:06:49.735Z,17.10
2018-12-13T20:09:18.799Z,16.80
2018-12-13T20:11:47.906Z,16.60
2018-12-13T20:14:17.010Z,16.42
2018-12-13T20:16:46.131Z,15.00
2018-12-13T20:19:15.228Z,15.63
2018-12-13T20:21:44.363Z,15.80
2018-12-13T20:24:13.452Z,16.35
2018-12-13T20:26:42.602Z,16.42
2018-12-13T20:29:11.682Z,17.30
2018-12-13T20:31:40.999Z,16.50
2018-12-13T20:34:10.142Z,16.73
2018-12-13T20:36:39.295Z,16.80
2018-12-13T20:39:09.440Z,16.30
2018-12-13T20:41:38.964Z,16.60
2018-12-13T20:44:08.167Z,16.30
2018-12-13T20:46:37.258Z,16.48
2018-12-13T20:49:06.408Z,16.20
2018-12-13T20:51:35.522Z,16.70
2018-12-13T20:54:04.652Z,16.45
2018-12-13T20:56:33.797Z,16.27
2018-12-13T20:59:02.898Z,16.63
2018-12-13T21:01:31.983Z,15.80
2018-12-13T21:04:01.216Z,16.52
2018-12-13T21:06:30.287Z,16.42
2018-12-13T21:08:59.370Z,15.10
2018-12-13T21:11:28.917Z,16.23
2018-12-13T21:13:58.132Z,17.60
2018-12-13T21:16:27.219Z,15.88
2018-12-13T21:18:56.382Z,15.57
2018-12-13T21:21:25.442Z,16.20
2018-12-13T21:23:54.510Z,16.50
2018-12-13T21:26:23.629Z,17.05
2018-12-13T21:28:52.702Z,18.43
2018-12-13T21:31:21.792Z,16.75
2018-12-13T21:33:50.934Z,16.60
2018-12-13T21:36:20.014Z,16.48
2018-12-13T21:38:49.080Z,17.48
2018-12-13T21:41:18.382Z,15.88
2018-12-13T21:43:47.436Z,16.15
2018-12-13T21:46:16.530Z,15.90
2018-12-13T21:48:45.618Z,16.55
2018-12-13T21:51:14.682Z,15.37
2018-12-13T21:53:43.907Z,16.07
2018-12-13T21:56:14.224Z,15.95
2018-12-13T21:58:43.278Z,15.90
2018-12-13T22:01:12.334Z,16.30
2018-12-13T22:03:41.594Z,14.98
2018-12-13T22:06:10.696Z,16.62
2018-12-13T22:08:39.764Z,14.95
2018-12-13T22:11:08.942Z,13.77
2018-12-13T22:13:38.018Z,15.78
2018-12-13T22:16:07.096Z,15.68
2018-12-13T22:18:36.371Z,15.60
2018-12-13T22:21:05.426Z,14.75
2018-12-13T22:23:34.496Z,16.00
2018-12-13T22:26:03.718Z,16.10
2018-12-13T22:28:32.792Z,15.43
2018-12-13T22:31:01.864Z,15.30
2018-12-13T22:33:30.969Z,15.95
2018-12-13T22:36:00.028Z,14.63
2018-12-13T22:38:29.119Z,16.02
2018-12-13T22:40:58.222Z,15.03
2018-12-13T22:43:27.706Z,15.70
2018-12-13T22:45:56.824Z,15.23
2018-12-13T22:48:25.894Z,15.55
2018-12-13T22:50:54.956Z,16.17
2018-12-13T22:53:24.038Z,15.60
2018-12-13T22:55:53.097Z,15.50
2018-12-13T22:58:22.294Z,15.90
2018-12-13T23:00:51.418Z,15.50
2018-12-13T23:03:20.506Z,15.80
2018-12-13T23:05:49.615Z,16.52
2018-12-13T23:08:18.668Z,16.12
2018-12-13T23:10:47.772Z,15.43
2018-12-13T23:13:16.838Z,16.10
2018-12-13T23:15:45.946Z,16.17
2018-12-13T23:18:15.042Z,15.65
2018-12-13T23:20:44.162Z,16.20
2018-12-13T23:23:13.302Z,15.70
2018-12-13T23:25:42.402Z,16.30
2018-12-13T23:28:11.523Z,16.50
2018-12-13T23:30:40.612Z,15.90
2018-12-13T23:33:09.712Z,15.70
2018-12-13T23:35:38.798Z,16.93
2018-12-13T23:38:07.900Z,16.17
2018-12-13T23:40:36.952Z,14.65
2018-12-13T23:43:06.007Z,16.23
2018-12-13T23:45:35.604Z,16.40
2018-12-13T23:48:04.891Z,16.60
2018-12-13T23:50:34.228Z,15.93
2018-12-13T23:53:03.320Z,16.40
2018-12-13T23:55:32.407Z,16.07
2018-12-13T23:58:01.477Z,15.93
